EZY8385 EGLL-LSGG
Flight info
| Callsign | EZY8385 |
|---|---|
| Flight time | N/A |
| Altitude | 32000 |
| Route | MODMI M185 MID UL612 VEULE DCT PEKIM DCT PILUL DCT PIMUP DCT PIXIS DCT PIBAT DCT LUSAR |
| Aircraft | A20N/M-SDE2E3FGHIRWXY/LB1 |
Departure
| Time | 2026-05-07 20:43 |
|---|---|
| Airport | London Heathrow Airport (EGLL) |
Arrival
| Time | N/A |
|---|---|
| Airport | Geneva International Airport (LSGG) |
| Time | Latitude | Longitude | Altitude | Speed | Heading |
|---|---|---|---|---|---|
| 2026-05-07 20:13 | 51.46983 | -0.47708 | 80 ft | 0 kts | 90° |
| 2026-05-07 20:27 | 51.46983 | -0.47715 | 80 ft | 2 kts | 90° |
| 2026-05-07 20:27 | 51.46983 | -0.47738 | 80 ft | 2 kts | 90° |
| 2026-05-07 20:28 | 51.46983 | -0.47761 | 80 ft | 2 kts | 90° |
| 2026-05-07 20:28 | 51.46984 | -0.47784 | 80 ft | 2 kts | 102° |
| 2026-05-07 20:28 | 51.46987 | -0.47803 | 80 ft | 2 kts | 111° |
| 2026-05-07 20:28 | 51.46994 | -0.47823 | 80 ft | 2 kts | 124° |
| 2026-05-07 20:29 | 51.47002 | -0.47841 | 80 ft | 2 kts | 136° |
| 2026-05-07 20:29 | 51.47013 | -0.47855 | 80 ft | 2 kts | 148° |
| 2026-05-07 20:29 | 51.47026 | -0.47865 | 80 ft | 2 kts | 160° |
| 2026-05-07 20:29 | 51.47038 | -0.47871 | 80 ft | 2 kts | 171° |
| 2026-05-07 20:30 | 51.47046 | -0.47873 | 79 ft | 0 kts | 178° |
| 2026-05-07 20:30 | 51.47052 | -0.47873 | 79 ft | 1 kts | 181° |
| 2026-05-07 20:30 | 51.47053 | -0.47873 | 79 ft | 0 kts | 181° |
| 2026-05-07 20:36 | 51.47045 | -0.47873 | 79 ft | 6 kts | 180° |
| 2026-05-07 20:36 | 51.46976 | -0.47871 | 80 ft | 11 kts | 179° |
| 2026-05-07 20:36 | 51.46893 | -0.47867 | 80 ft | 12 kts | 178° |
| 2026-05-07 20:36 | 51.46814 | -0.47867 | 80 ft | 13 kts | 181° |
| 2026-05-07 20:37 | 51.46733 | -0.47868 | 80 ft | 13 kts | 180° |
| 2026-05-07 20:37 | 51.46660 | -0.47891 | 80 ft | 13 kts | 236° |
| 2026-05-07 20:37 | 51.46652 | -0.48002 | 80 ft | 13 kts | 272° |
| 2026-05-07 20:37 | 51.46653 | -0.48085 | 80 ft | 0 kts | 269° |
| 2026-05-07 20:39 | 51.46652 | -0.48108 | 80 ft | 7 kts | 269° |
| 2026-05-07 20:39 | 51.46651 | -0.48218 | 79 ft | 17 kts | 269° |
| 2026-05-07 20:40 | 51.46651 | -0.48390 | 77 ft | 18 kts | 270° |
| 2026-05-07 20:40 | 51.46650 | -0.48469 | 77 ft | 2 kts | 268° |
| 2026-05-07 20:40 | 51.46650 | -0.48541 | 77 ft | 13 kts | 271° |
| 2026-05-07 20:40 | 51.46648 | -0.48699 | 77 ft | 15 kts | 266° |
| 2026-05-07 20:41 | 51.46612 | -0.48761 | 77 ft | 8 kts | 201° |
| 2026-05-07 20:41 | 51.46563 | -0.48784 | 77 ft | 9 kts | 193° |
| 2026-05-07 20:41 | 51.46504 | -0.48775 | 77 ft | 10 kts | 151° |
| 2026-05-07 20:41 | 51.46475 | -0.48698 | 77 ft | 10 kts | 92° |
| 2026-05-07 20:42 | 51.46477 | -0.48554 | 77 ft | 37 kts | 90° |
| 2026-05-07 20:42 | 51.46479 | -0.47965 | 78 ft | 97 kts | 89° |
| 2026-05-07 20:42 | 51.46484 | -0.46776 | 78 ft | 150 kts | 90° |
| 2026-05-07 20:42 | 51.46494 | -0.45176 | 410 ft | 168 kts | 91° |
| 2026-05-07 20:43 | 51.46495 | -0.43973 | 801 ft | 175 kts | 91° |
| 2026-05-07 20:43 | 51.46390 | -0.42022 | 1526 ft | 181 kts | 108° |
| 2026-05-07 20:43 | 51.44770 | -0.38113 | 3030 ft | 199 kts | 135° |
| 2026-05-07 20:44 | 51.43420 | -0.36867 | 3451 ft | 226 kts | 161° |
| 2026-05-07 20:44 | 51.42379 | -0.36323 | 3843 ft | 238 kts | 162° |
| 2026-05-07 20:44 | 51.40603 | -0.35514 | 4482 ft | 257 kts | 172° |
| 2026-05-07 20:44 | 51.38397 | -0.36060 | 5396 ft | 267 kts | 203° |
| 2026-05-07 20:45 | 51.34531 | -0.39530 | 6001 ft | 270 kts | 209° |
| 2026-05-07 20:45 | 51.32532 | -0.41284 | 5999 ft | 269 kts | 207° |
| 2026-05-07 20:45 | 51.30181 | -0.43199 | 5996 ft | 270 kts | 206° |
| 2026-05-07 20:46 | 51.28206 | -0.44749 | 6300 ft | 279 kts | 206° |
| 2026-05-07 20:46 | 51.26057 | -0.46443 | 7636 ft | 278 kts | 206° |
| 2026-05-07 20:46 | 51.24017 | -0.48067 | 8863 ft | 279 kts | 207° |
| 2026-05-07 20:46 | 51.22512 | -0.49261 | 9679 ft | 282 kts | 207° |
| 2026-05-07 20:47 | 51.20244 | -0.51026 | 10776 ft | 288 kts | 207° |
| 2026-05-07 20:47 | 51.17875 | -0.52862 | 11401 ft | 311 kts | 206° |
| 2026-05-07 20:47 | 51.15573 | -0.54643 | 11889 ft | 332 kts | 206° |
| 2026-05-07 20:47 | 51.12796 | -0.56788 | 12730 ft | 344 kts | 206° |
| 2026-05-07 20:48 | 51.10027 | -0.58923 | 13798 ft | 348 kts | 207° |
| 2026-05-07 20:48 | 51.08271 | -0.60232 | 14441 ft | 351 kts | 202° |
| 2026-05-07 20:48 | 51.05193 | -0.60942 | 15389 ft | 359 kts | 175° |